createdAt,value
2019-01-29T00:00:44.833Z,995.9
2019-01-29T00:01:44.761Z,995.9
2019-01-29T00:02:45.010Z,995.88
2019-01-29T00:03:44.743Z,995.94
2019-01-29T00:04:44.691Z,995.95
2019-01-29T00:05:44.670Z,995.92
2019-01-29T00:06:44.644Z,995.96
2019-01-29T00:07:44.620Z,995.93
2019-01-29T00:08:44.596Z,995.97
2019-01-29T00:09:44.574Z,995.93
2019-01-29T00:10:44.550Z,995.94
2019-01-29T00:11:44.526Z,995.93
2019-01-29T00:12:44.504Z,995.94
2019-01-29T00:13:44.480Z,995.93
2019-01-29T00:14:44.462Z,995.99
2019-01-29T00:15:44.474Z,996.04
2019-01-29T00:16:44.409Z,996.03
2019-01-29T00:17:44.386Z,996.01
2019-01-29T00:18:44.364Z,996.04
2019-01-29T00:19:44.344Z,996.03
2019-01-29T00:20:44.318Z,996.03
2019-01-29T00:21:44.296Z,996.08
2019-01-29T00:22:44.274Z,996.08
2019-01-29T00:23:44.246Z,996.1
2019-01-29T00:24:44.221Z,996.1
2019-01-29T00:25:44.200Z,996.14
2019-01-29T00:26:44.177Z,996.13
2019-01-29T00:27:44.153Z,996.11
2019-01-29T00:28:44.128Z,996.12
2019-01-29T00:29:44.107Z,996.07
2019-01-29T00:30:44.082Z,996.11
2019-01-29T00:31:44.061Z,996.06
2019-01-29T00:32:44.039Z,996.08
2019-01-29T00:33:44.015Z,996.05
2019-01-29T00:34:43.990Z,996.08
2019-01-29T00:35:43.965Z,996.08
2019-01-29T00:36:43.943Z,996.07
2019-01-29T00:37:43.920Z,996.1
2019-01-29T00:38:43.948Z,996.07
2019-01-29T00:39:43.873Z,996.05
2019-01-29T00:40:43.849Z,996.08
2019-01-29T00:41:43.827Z,996.11
2019-01-29T00:42:43.804Z,996.1
2019-01-29T00:43:43.786Z,996.07
2019-01-29T00:44:43.758Z,996.1
2019-01-29T00:45:43.732Z,996.09
2019-01-29T00:46:43.707Z,996.07
2019-01-29T00:47:43.684Z,996.12
2019-01-29T00:48:43.663Z,996.09
2019-01-29T00:49:43.639Z,996.04
2019-01-29T00:50:43.616Z,996.07
2019-01-29T00:51:43.590Z,996.05
2019-01-29T00:52:43.569Z,996.1
2019-01-29T00:53:43.577Z,996.08
2019-01-29T00:54:43.529Z,996.07
2019-01-29T00:55:43.498Z,996.05
2019-01-29T00:56:43.476Z,996.05
2019-01-29T00:57:43.450Z,996.09
2019-01-29T00:58:43.432Z,996.13
2019-01-29T00:59:43.405Z,996.14
2019-01-29T01:00:43.380Z,996.16
2019-01-29T01:01:43.355Z,996.19
2019-01-29T01:02:43.331Z,996.2
2019-01-29T01:03:43.308Z,996.2
2019-01-29T01:04:43.284Z,996.19
2019-01-29T01:05:43.463Z,996.2
2019-01-29T01:06:43.285Z,996.2
2019-01-29T01:07:43.222Z,996.22
2019-01-29T01:08:43.189Z,996.23
2019-01-29T01:09:43.171Z,996.19
2019-01-29T01:10:43.143Z,996.21
2019-01-29T01:11:43.124Z,996.19
2019-01-29T01:12:43.100Z,996.23
2019-01-29T01:13:43.073Z,996.21
2019-01-29T01:14:43.050Z,996.23
2019-01-29T01:15:43.027Z,996.24
2019-01-29T01:16:43.002Z,996.23
2019-01-29T01:17:42.980Z,996.31
2019-01-29T01:18:42.955Z,996.35
2019-01-29T01:19:42.932Z,996.33
2019-01-29T01:20:42.911Z,996.34
2019-01-29T01:21:42.885Z,996.34
2019-01-29T01:22:50.297Z,996.39
2019-01-29T01:23:42.837Z,996.47
2019-01-29T01:24:42.813Z,996.43
2019-01-29T01:25:42.792Z,996.47
2019-01-29T01:26:42.769Z,996.48
2019-01-29T01:27:42.948Z,996.49
2019-01-29T01:28:42.721Z,996.49
2019-01-29T01:29:42.699Z,996.52
2019-01-29T01:30:42.673Z,996.57
2019-01-29T01:31:42.655Z,996.57
2019-01-29T01:32:42.627Z,996.54
2019-01-29T01:33:42.603Z,996.58
2019-01-29T01:34:42.637Z,996.61
2019-01-29T01:35:42.558Z,996.63
2019-01-29T01:36:42.533Z,996.63
2019-01-29T01:37:42.512Z,996.61
2019-01-29T01:38:42.484Z,996.6
2019-01-29T01:39:42.465Z,996.64
2019-01-29T01:40:42.438Z,996.61
2019-01-29T01:41:42.418Z,996.72
2019-01-29T01:42:42.391Z,996.66
2019-01-29T01:43:42.370Z,996.67
2019-01-29T01:44:42.344Z,996.67
2019-01-29T01:45:42.323Z,996.64
2019-01-29T01:46:42.296Z,996.69
2019-01-29T01:47:42.296Z,996.65
2019-01-29T01:48:42.250Z,996.64
2019-01-29T01:49:42.229Z,996.63
2019-01-29T01:50:42.203Z,996.66
2019-01-29T01:51:42.179Z,996.65
2019-01-29T01:52:42.154Z,996.63
2019-01-29T01:53:42.131Z,996.65
2019-01-29T01:54:42.109Z,996.6
2019-01-29T01:55:42.087Z,996.58
2019-01-29T01:56:42.068Z,996.62
2019-01-29T01:57:42.038Z,996.64
2019-01-29T01:58:42.017Z,996.58
2019-01-29T01:59:41.997Z,996.68
2019-01-29T02:00:41.966Z,996.65
2019-01-29T02:01:41.943Z,996.64
2019-01-29T02:02:41.924Z,996.62
2019-01-29T02:03:41.897Z,996.64
2019-01-29T02:04:41.872Z,996.67
2019-01-29T02:05:41.851Z,996.72
2019-01-29T02:06:41.829Z,996.74
2019-01-29T02:07:41.803Z,996.68
2019-01-29T02:08:41.788Z,996.74
2019-01-29T02:09:41.763Z,996.73
2019-01-29T02:10:41.733Z,996.75
2019-01-29T02:11:41.706Z,996.8
2019-01-29T02:12:41.685Z,996.75
2019-01-29T02:13:41.661Z,996.76
2019-01-29T02:14:41.636Z,996.77
2019-01-29T02:15:41.612Z,996.75
2019-01-29T02:16:41.589Z,996.74
2019-01-29T02:17:41.566Z,996.74
2019-01-29T02:18:41.544Z,996.77
2019-01-29T02:19:41.519Z,996.78
2019-01-29T02:20:41.494Z,996.79
2019-01-29T02:21:41.475Z,996.83
2019-01-29T02:22:41.448Z,996.78
2019-01-29T02:23:41.430Z,996.83
2019-01-29T02:24:41.401Z,996.84
2019-01-29T02:25:41.380Z,996.82
2019-01-29T02:26:41.377Z,996.82
2019-01-29T02:27:41.330Z,996.81
2019-01-29T02:28:41.305Z,996.91
2019-01-29T02:29:41.285Z,996.88
2019-01-29T02:30:41.261Z,996.89
2019-01-29T02:31:41.239Z,996.93
2019-01-29T02:32:41.210Z,996.92
2019-01-29T02:33:41.188Z,996.98
2019-01-29T02:34:41.165Z,996.95
2019-01-29T02:35:41.164Z,996.96
2019-01-29T02:36:41.121Z,996.99
2019-01-29T02:37:41.098Z,996.99
2019-01-29T02:38:41.072Z,996.99
2019-01-29T02:39:41.054Z,997.02
2019-01-29T02:40:41.024Z,996.99
2019-01-29T02:41:40.999Z,996.98
2019-01-29T02:42:40.976Z,996.95
2019-01-29T02:43:40.954Z,996.93
2019-01-29T02:44:40.928Z,996.97
2019-01-29T02:45:40.906Z,996.97
2019-01-29T02:46:40.882Z,997
2019-01-29T02:47:40.857Z,996.98
2019-01-29T02:48:40.836Z,997.01
2019-01-29T02:49:40.811Z,996.99
2019-01-29T02:50:40.795Z,997.01
2019-01-29T02:51:40.762Z,997.01
2019-01-29T02:52:40.742Z,997.03
2019-01-29T02:53:40.717Z,997.03
2019-01-29T02:54:40.692Z,997.03
2019-01-29T02:55:40.668Z,997.05
2019-01-29T02:56:40.645Z,997.06
2019-01-29T02:57:40.621Z,997.06
2019-01-29T02:58:40.597Z,997.08
2019-01-29T02:59:40.574Z,997.14
2019-01-29T03:00:40.551Z,997.1
2019-01-29T03:01:40.727Z,997.11
2019-01-29T03:02:40.513Z,997.11
2019-01-29T03:03:40.484Z,997.03
2019-01-29T03:04:40.458Z,997.08
2019-01-29T03:05:40.431Z,997.06
2019-01-29T03:06:40.509Z,997.11
2019-01-29T03:07:40.387Z,997.05
2019-01-29T03:08:40.364Z,997.09
2019-01-29T03:09:40.339Z,997.09
2019-01-29T03:10:40.318Z,997.07
2019-01-29T03:11:40.293Z,997.09
2019-01-29T03:12:40.267Z,997.09
2019-01-29T03:13:40.249Z,997.07
2019-01-29T03:14:40.221Z,997.11
2019-01-29T03:15:40.197Z,997.08
2019-01-29T03:16:40.174Z,997.05
2019-01-29T03:17:40.152Z,997.08
2019-01-29T03:18:40.128Z,997.04
2019-01-29T03:19:40.104Z,997.07
2019-01-29T03:20:40.079Z,997.07
2019-01-29T03:21:40.058Z,997.04
2019-01-29T03:22:40.032Z,997.05
2019-01-29T03:23:40.007Z,997.03
2019-01-29T03:24:39.985Z,997.06
2019-01-29T03:25:39.962Z,997.05
2019-01-29T03:26:39.941Z,997.06
2019-01-29T03:27:39.914Z,997.07
2019-01-29T03:28:39.890Z,997.06
2019-01-29T03:29:39.868Z,997.08
2019-01-29T03:30:39.848Z,997.1
2019-01-29T03:31:39.820Z,997.08
2019-01-29T03:32:39.800Z,997.11
2019-01-29T03:33:39.775Z,997.11
2019-01-29T03:34:39.750Z,997.15
2019-01-29T03:35:39.727Z,997.16
2019-01-29T03:36:39.706Z,997.12
2019-01-29T03:37:39.679Z,997.17
2019-01-29T03:38:39.663Z,997.13
2019-01-29T03:39:39.635Z,997.15
2019-01-29T03:40:39.611Z,997.13
2019-01-29T03:41:39.588Z,997.14
2019-01-29T03:42:40.918Z,997.17
2019-01-29T03:43:39.542Z,997.2
2019-01-29T03:44:39.518Z,997.13
2019-01-29T03:45:39.491Z,997.16
2019-01-29T03:46:39.472Z,997.16
2019-01-29T03:47:39.444Z,997.1
2019-01-29T03:48:39.423Z,997.09
2019-01-29T03:49:39.396Z,997.11
2019-01-29T03:50:39.380Z,997.21
2019-01-29T03:51:39.350Z,997.16
2019-01-29T03:52:39.340Z,997.19
2019-01-29T03:53:39.308Z,997.11
2019-01-29T03:54:39.280Z,997.14
2019-01-29T03:55:39.257Z,997.09
2019-01-29T03:56:39.244Z,997.14
2019-01-29T03:57:39.216Z,997.16
2019-01-29T03:58:39.190Z,997.19
2019-01-29T03:59:39.163Z,997.24
2019-01-29T04:00:39.141Z,997.24
2019-01-29T04:01:39.113Z,997.22
2019-01-29T04:02:39.092Z,997.24
2019-01-29T04:03:39.068Z,997.17
2019-01-29T04:04:39.045Z,997.19
2019-01-29T04:05:39.027Z,997.18
2019-01-29T04:06:38.998Z,997.18
2019-01-29T04:07:38.974Z,997.16
2019-01-29T04:08:38.952Z,997.23
2019-01-29T04:09:38.928Z,997.21
2019-01-29T04:10:38.905Z,997.22
2019-01-29T04:11:38.879Z,997.25
2019-01-29T04:12:38.855Z,997.28
2019-01-29T04:13:38.841Z,997.29
2019-01-29T04:14:38.809Z,997.26
2019-01-29T04:15:38.790Z,997.24
2019-01-29T04:16:38.761Z,997.3
2019-01-29T04:17:38.737Z,997.29
2019-01-29T04:18:38.714Z,997.27
2019-01-29T04:19:38.688Z,997.27
2019-01-29T04:20:38.730Z,997.31
2019-01-29T04:21:38.643Z,997.27
2019-01-29T04:22:38.619Z,997.27
2019-01-29T04:23:47.052Z,997.27
2019-01-29T04:24:38.577Z,997.3
2019-01-29T04:25:38.548Z,997.32
2019-01-29T04:26:38.534Z,997.31
2019-01-29T04:27:38.502Z,997.33
2019-01-29T04:28:38.475Z,997.33
2019-01-29T04:29:38.452Z,997.32
2019-01-29T04:30:38.429Z,997.29
2019-01-29T04:31:38.407Z,997.31
2019-01-29T04:32:38.386Z,997.33
2019-01-29T04:33:38.357Z,997.35
2019-01-29T04:34:38.334Z,997.36
2019-01-29T04:35:38.314Z,997.37
2019-01-29T04:36:38.286Z,997.36
2019-01-29T04:37:38.264Z,997.35
2019-01-29T04:38:38.239Z,997.38
2019-01-29T04:39:38.215Z,997.36
2019-01-29T04:40:38.190Z,997.37
2019-01-29T04:41:38.167Z,997.34
2019-01-29T04:42:38.142Z,997.34
2019-01-29T04:43:38.123Z,997.35
2019-01-29T04:44:38.115Z,997.34
2019-01-29T04:45:38.074Z,997.38
2019-01-29T04:46:38.046Z,997.38
2019-01-29T04:47:38.025Z,997.39
2019-01-29T04:48:38.004Z,997.38
2019-01-29T04:49:37.978Z,997.37
2019-01-29T04:50:37.953Z,997.36
2019-01-29T04:51:37.929Z,997.33
2019-01-29T04:52:37.907Z,997.34
2019-01-29T04:53:37.881Z,997.34
2019-01-29T04:54:37.859Z,997.34
2019-01-29T04:55:37.832Z,997.32
2019-01-29T04:56:37.808Z,997.34
2019-01-29T04:57:37.786Z,997.34
2019-01-29T04:58:37.762Z,997.32
2019-01-29T04:59:37.740Z,997.34
2019-01-29T05:00:37.721Z,997.31
2019-01-29T05:01:37.688Z,997.32
2019-01-29T05:02:37.669Z,997.32
2019-01-29T05:03:37.644Z,997.32
2019-01-29T05:04:37.617Z,997.3
2019-01-29T05:05:37.594Z,997.36
2019-01-29T05:06:37.771Z,997.3
2019-01-29T05:07:37.546Z,997.34
2019-01-29T05:08:37.525Z,997.32
2019-01-29T05:09:37.501Z,997.32
2019-01-29T05:10:37.479Z,997.31
2019-01-29T05:11:37.451Z,997.32
2019-01-29T05:12:37.429Z,997.27
2019-01-29T05:13:37.403Z,997.28
2019-01-29T05:14:37.381Z,997.26
2019-01-29T05:15:37.361Z,997.28
2019-01-29T05:16:37.333Z,997.27
2019-01-29T05:17:37.307Z,997.26
2019-01-29T05:18:37.298Z,997.28
2019-01-29T05:19:37.261Z,997.3
2019-01-29T05:20:37.235Z,997.29
2019-01-29T05:21:37.210Z,997.31
2019-01-29T05:22:37.212Z,997.31
2019-01-29T05:23:37.163Z,997.32
2019-01-29T05:24:37.141Z,997.34
2019-01-29T05:25:37.117Z,997.32
2019-01-29T05:26:37.093Z,997.33
2019-01-29T05:27:37.071Z,997.32
2019-01-29T05:28:37.046Z,997.32
2019-01-29T05:29:37.020Z,997.33
2019-01-29T05:30:36.996Z,997.27
2019-01-29T05:31:36.976Z,997.27
2019-01-29T05:32:36.952Z,997.33
2019-01-29T05:33:36.928Z,997.33
2019-01-29T05:34:36.907Z,997.39
2019-01-29T05:35:36.879Z,997.39
2019-01-29T05:36:36.855Z,997.35
2019-01-29T05:37:36.833Z,997.39
2019-01-29T05:38:36.807Z,997.36
2019-01-29T05:39:36.799Z,997.37
2019-01-29T05:40:36.758Z,997.41
2019-01-29T05:41:36.737Z,997.4
2019-01-29T05:42:36.711Z,997.37
2019-01-29T05:43:36.687Z,997.34
2019-01-29T05:44:36.665Z,997.4
2019-01-29T05:45:36.641Z,997.4
2019-01-29T05:46:36.630Z,997.37
2019-01-29T05:47:36.593Z,997.4
2019-01-29T05:48:36.601Z,997.42
2019-01-29T05:49:36.547Z,997.42
2019-01-29T05:50:36.530Z,997.38
2019-01-29T05:51:36.519Z,997.39
2019-01-29T05:52:36.494Z,997.42
2019-01-29T05:53:36.454Z,997.45
2019-01-29T05:54:36.436Z,997.46
2019-01-29T05:55:36.404Z,997.44
2019-01-29T05:56:36.380Z,997.39
2019-01-29T05:57:36.358Z,997.41
2019-01-29T05:58:36.335Z,997.41
2019-01-29T05:59:36.315Z,997.44
2019-01-29T06:00:36.284Z,997.4
2019-01-29T06:01:36.264Z,997.41
2019-01-29T06:02:36.237Z,997.39
2019-01-29T06:03:36.218Z,997.37
2019-01-29T06:04:36.193Z,997.41
2019-01-29T06:05:36.170Z,997.35
2019-01-29T06:06:36.144Z,997.36
2019-01-29T06:07:36.121Z,997.38
2019-01-29T06:08:36.098Z,997.36
2019-01-29T06:09:36.074Z,997.42
2019-01-29T06:10:36.049Z,997.39
2019-01-29T06:11:36.027Z,997.41
2019-01-29T06:12:36.004Z,997.36
2019-01-29T06:13:35.982Z,997.44
2019-01-29T06:14:35.959Z,997.45
2019-01-29T06:15:35.936Z,997.45
2019-01-29T06:16:35.911Z,997.43
2019-01-29T06:17:35.885Z,997.46
2019-01-29T06:18:35.861Z,997.42
2019-01-29T06:19:35.843Z,997.47
2019-01-29T06:20:35.817Z,997.46
2019-01-29T06:21:35.791Z,997.44
2019-01-29T06:22:35.774Z,997.49
2019-01-29T06:23:35.744Z,997.41
2019-01-29T06:24:35.728Z,997.46
2019-01-29T06:25:35.697Z,997.51
2019-01-29T06:26:35.674Z,997.5
2019-01-29T06:27:35.657Z,997.5
2019-01-29T06:28:35.628Z,997.49
2019-01-29T06:29:35.601Z,997.5
2019-01-29T06:30:35.579Z,997.51
2019-01-29T06:31:35.555Z,997.5
2019-01-29T06:32:35.534Z,997.5
2019-01-29T06:33:35.511Z,997.52
2019-01-29T06:34:35.483Z,997.51
2019-01-29T06:35:35.460Z,997.5
2019-01-29T06:36:35.437Z,997.53
2019-01-29T06:37:35.421Z,997.53
2019-01-29T06:38:35.390Z,997.52
2019-01-29T06:39:35.368Z,997.54
2019-01-29T06:40:35.350Z,997.55
2019-01-29T06:41:35.319Z,997.55
2019-01-29T06:42:35.298Z,997.57
2019-01-29T06:43:35.274Z,997.55
2019-01-29T06:44:35.249Z,997.58
2019-01-29T06:45:35.229Z,997.55
2019-01-29T06:46:35.202Z,997.58
2019-01-29T06:47:35.179Z,997.58
2019-01-29T06:48:35.155Z,997.56
2019-01-29T06:49:35.133Z,997.59
2019-01-29T06:50:35.112Z,997.62
2019-01-29T06:51:35.086Z,997.59
2019-01-29T06:52:35.061Z,997.57
2019-01-29T06:53:35.039Z,997.57
2019-01-29T06:54:35.016Z,997.56
2019-01-29T06:55:34.994Z,997.56
2019-01-29T06:56:34.968Z,997.57
2019-01-29T06:57:34.947Z,997.56
2019-01-29T06:58:34.923Z,997.54
2019-01-29T06:59:34.899Z,997.58
2019-01-29T07:00:34.875Z,997.56
2019-01-29T07:01:34.854Z,997.52
2019-01-29T07:02:34.829Z,997.52
2019-01-29T07:03:34.805Z,997.53
2019-01-29T07:04:34.782Z,997.52
2019-01-29T07:05:34.758Z,997.54
2019-01-29T07:06:34.937Z,997.54
2019-01-29T07:07:34.711Z,997.49
2019-01-29T07:08:34.689Z,997.55
2019-01-29T07:09:34.669Z,997.55
2019-01-29T07:10:34.643Z,997.55
2019-01-29T07:11:34.618Z,997.48
2019-01-29T07:12:34.594Z,997.53
2019-01-29T07:13:34.572Z,997.55
2019-01-29T07:14:34.548Z,997.55
2019-01-29T07:15:34.529Z,997.58
2019-01-29T07:16:34.501Z,997.6
2019-01-29T07:17:34.480Z,997.65
2019-01-29T07:18:34.456Z,997.68
2019-01-29T07:19:34.433Z,997.65
2019-01-29T07:20:34.407Z,997.71
2019-01-29T07:21:34.385Z,997.73
2019-01-29T07:22:34.361Z,997.74
2019-01-29T07:23:34.341Z,997.76
2019-01-29T07:24:42.377Z,997.77
2019-01-29T07:25:34.293Z,997.74
2019-01-29T07:26:34.271Z,997.79
2019-01-29T07:27:34.249Z,997.78
2019-01-29T07:28:34.228Z,997.78
2019-01-29T07:29:34.201Z,997.82
2019-01-29T07:30:34.176Z,997.77
2019-01-29T07:31:34.155Z,997.81
2019-01-29T07:32:34.129Z,997.84
2019-01-29T07:33:34.106Z,997.8
2019-01-29T07:34:34.087Z,997.82
2019-01-29T07:35:34.063Z,997.84
2019-01-29T07:36:34.040Z,997.86
2019-01-29T07:37:34.014Z,997.81
2019-01-29T07:38:33.991Z,997.84
2019-01-29T07:39:33.968Z,997.85
2019-01-29T07:40:33.945Z,997.82
2019-01-29T07:41:33.923Z,997.85
2019-01-29T07:42:33.898Z,997.86
2019-01-29T07:43:33.876Z,997.84
2019-01-29T07:44:33.851Z,997.83
2019-01-29T07:45:33.828Z,997.87
2019-01-29T07:46:33.808Z,997.83
2019-01-29T07:47:33.782Z,997.81
2019-01-29T07:48:33.759Z,997.85
2019-01-29T07:49:33.742Z,997.8
2019-01-29T07:50:33.712Z,997.81
2019-01-29T07:51:33.691Z,997.79
2019-01-29T07:52:33.667Z,997.8
2019-01-29T07:53:33.645Z,997.81
2019-01-29T07:54:33.664Z,997.78
2019-01-29T07:55:33.599Z,997.75
2019-01-29T07:56:33.574Z,997.75
2019-01-29T07:57:33.556Z,997.73
2019-01-29T07:58:33.543Z,997.75
2019-01-29T07:59:33.507Z,997.7
2019-01-29T08:00:33.484Z,997.72
2019-01-29T08:01:33.483Z,997.71
2019-01-29T08:02:33.437Z,997.71
2019-01-29T08:03:33.416Z,997.68
2019-01-29T08:04:33.392Z,997.72
2019-01-29T08:05:33.368Z,997.74
2019-01-29T08:06:33.345Z,997.71
2019-01-29T08:07:33.322Z,997.74
2019-01-29T08:08:33.301Z,997.74
2019-01-29T08:09:33.274Z,997.74
2019-01-29T08:10:33.252Z,997.7
2019-01-29T08:11:33.229Z,997.71
2019-01-29T08:12:33.208Z,997.68
2019-01-29T08:13:33.186Z,997.7
2019-01-29T08:14:33.163Z,997.71
2019-01-29T08:15:33.140Z,997.72
2019-01-29T08:16:33.117Z,997.73
2019-01-29T08:17:33.094Z,997.76
2019-01-29T08:18:33.070Z,997.73
2019-01-29T08:19:33.046Z,997.7
2019-01-29T08:20:33.024Z,997.71
2019-01-29T08:21:32.998Z,997.77
2019-01-29T08:22:32.977Z,997.72
2019-01-29T08:23:32.954Z,997.71
2019-01-29T08:24:32.932Z,997.72
2019-01-29T08:25:32.909Z,997.68
2019-01-29T08:26:32.922Z,997.73
2019-01-29T08:27:32.864Z,997.67
2019-01-29T08:28:32.842Z,997.68
2019-01-29T08:29:32.818Z,997.71
2019-01-29T08:30:32.797Z,997.67
2019-01-29T08:31:32.772Z,997.69
2019-01-29T08:32:32.750Z,997.67
2019-01-29T08:33:32.734Z,997.66
2019-01-29T08:34:32.705Z,997.67
2019-01-29T08:35:32.679Z,997.71
2019-01-29T08:36:32.807Z,997.72
2019-01-29T08:37:32.633Z,997.72
2019-01-29T08:38:32.609Z,997.71
2019-01-29T08:39:32.586Z,997.69
2019-01-29T08:40:32.569Z,997.66
2019-01-29T08:41:32.541Z,997.69
2019-01-29T08:42:32.518Z,997.64
2019-01-29T08:43:32.500Z,997.65
2019-01-29T08:44:32.477Z,997.68
2019-01-29T08:45:32.454Z,997.66
2019-01-29T08:46:32.428Z,997.63
2019-01-29T08:47:32.405Z,997.62
2019-01-29T08:48:32.385Z,997.68
2019-01-29T08:49:32.359Z,997.63
2019-01-29T08:50:32.341Z,997.64
2019-01-29T08:51:32.313Z,997.65
2019-01-29T08:52:32.289Z,997.62
2019-01-29T08:53:32.266Z,997.64
2019-01-29T08:54:32.246Z,997.62
2019-01-29T08:55:32.223Z,997.63
2019-01-29T08:56:32.198Z,997.59
2019-01-29T08:57:32.180Z,997.6
2019-01-29T08:58:32.164Z,997.61
2019-01-29T08:59:32.134Z,997.56
2019-01-29T09:00:32.107Z,997.58
2019-01-29T09:01:32.089Z,997.56
2019-01-29T09:02:32.068Z,997.56
2019-01-29T09:03:32.088Z,997.56
2019-01-29T09:04:32.017Z,997.53
2019-01-29T09:05:31.998Z,997.53
2019-01-29T09:06:32.173Z,997.55
2019-01-29T09:07:31.955Z,997.51
2019-01-29T09:08:31.926Z,997.51
2019-01-29T09:09:31.903Z,997.56
2019-01-29T09:10:31.880Z,997.51
2019-01-29T09:11:31.857Z,997.48
2019-01-29T09:12:31.837Z,997.53
2019-01-29T09:13:31.813Z,997.5
2019-01-29T09:14:31.790Z,997.53
2019-01-29T09:15:31.781Z,997.45
2019-01-29T09:16:31.749Z,997.44
2019-01-29T09:17:31.723Z,997.44
2019-01-29T09:18:31.699Z,997.44
2019-01-29T09:19:31.701Z,997.45
2019-01-29T09:20:31.655Z,997.39
2019-01-29T09:21:31.633Z,997.43
2019-01-29T09:22:31.612Z,997.4
2019-01-29T09:23:31.588Z,997.4
2019-01-29T09:24:31.569Z,997.39
2019-01-29T09:25:31.544Z,997.37
2019-01-29T09:26:31.524Z,997.37
2019-01-29T09:27:31.503Z,997.37
2019-01-29T09:28:31.479Z,997.36
2019-01-29T09:29:31.454Z,997.42
2019-01-29T09:30:31.431Z,997.38
2019-01-29T09:31:31.412Z,997.38
2019-01-29T09:32:31.388Z,997.37
2019-01-29T09:33:31.365Z,997.36
2019-01-29T09:34:31.344Z,997.35
2019-01-29T09:35:31.322Z,997.35
2019-01-29T09:36:31.298Z,997.36
2019-01-29T09:37:31.275Z,997.37
2019-01-29T09:38:31.253Z,997.36
2019-01-29T09:39:31.233Z,997.33
2019-01-29T09:40:31.209Z,997.34
2019-01-29T09:41:31.189Z,997.33
2019-01-29T09:42:31.179Z,997.32
2019-01-29T09:43:31.145Z,997.36
2019-01-29T09:44:31.123Z,997.3
2019-01-29T09:45:31.099Z,997.28
2019-01-29T09:46:31.079Z,997.26
2019-01-29T09:47:31.056Z,997.33
2019-01-29T09:48:31.033Z,997.27
2019-01-29T09:49:31.011Z,997.26
2019-01-29T09:50:30.991Z,997.22
2019-01-29T09:51:30.984Z,997.26
2019-01-29T09:52:30.947Z,997.27
2019-01-29T09:53:30.928Z,997.29
2019-01-29T09:54:30.906Z,997.27
2019-01-29T09:55:30.881Z,997.28
2019-01-29T09:56:30.869Z,997.29
2019-01-29T09:57:30.987Z,997.27
2019-01-29T09:58:30.831Z,997.26
2019-01-29T09:59:30.791Z,997.23
2019-01-29T10:00:30.771Z,997.2
2019-01-29T10:01:30.749Z,997.22
2019-01-29T10:02:30.727Z,997.2
2019-01-29T10:03:30.706Z,997.18
2019-01-29T10:04:30.694Z,997.22
2019-01-29T10:05:30.662Z,997.18
2019-01-29T10:06:30.639Z,997.16
2019-01-29T10:07:30.618Z,997.18
2019-01-29T10:08:30.596Z,997.16
2019-01-29T10:09:30.573Z,997.18
2019-01-29T10:10:30.556Z,997.16
2019-01-29T10:11:30.530Z,997.21
2019-01-29T10:12:30.508Z,997.14
2019-01-29T10:13:30.489Z,997.18
2019-01-29T10:14:30.467Z,997.14
2019-01-29T10:15:30.445Z,997.16
2019-01-29T10:16:30.419Z,997.13
2019-01-29T10:17:30.401Z,997.12
2019-01-29T10:18:30.378Z,997.14
2019-01-29T10:19:30.356Z,997.15
2019-01-29T10:20:30.333Z,997.11
2019-01-29T10:21:30.310Z,997.1
2019-01-29T10:22:30.290Z,997.09
2019-01-29T10:23:30.269Z,997.09
2019-01-29T10:24:30.244Z,997.09
2019-01-29T10:25:37.295Z,997.06
2019-01-29T10:26:30.200Z,997.01
2019-01-29T10:27:30.179Z,997.05
2019-01-29T10:28:30.158Z,997.05
2019-01-29T10:29:30.135Z,997.02
2019-01-29T10:30:30.118Z,997.02
2019-01-29T10:31:30.089Z,997.04
2019-01-29T10:32:30.069Z,997.08
2019-01-29T10:33:30.047Z,996.99
2019-01-29T10:34:30.026Z,996.98
2019-01-29T10:35:30.003Z,996.99
2019-01-29T10:36:29.981Z,996.98
2019-01-29T10:37:29.961Z,996.96
2019-01-29T10:38:30.135Z,996.95
2019-01-29T10:39:29.917Z,996.91
2019-01-29T10:40:29.893Z,996.92
2019-01-29T10:41:29.870Z,996.89
2019-01-29T10:42:29.849Z,996.9
2019-01-29T10:43:29.828Z,996.9
2019-01-29T10:44:29.807Z,996.96
2019-01-29T10:45:29.783Z,996.9
2019-01-29T10:46:29.762Z,996.85
2019-01-29T10:47:29.740Z,996.83
2019-01-29T10:48:29.721Z,996.79
2019-01-29T10:49:29.700Z,996.74
2019-01-29T10:50:29.683Z,996.71
2019-01-29T10:51:29.658Z,996.72
2019-01-29T10:52:29.643Z,996.76
2019-01-29T10:53:29.617Z,996.77
2019-01-29T10:54:29.596Z,996.66
2019-01-29T10:55:29.579Z,996.65
2019-01-29T10:56:29.556Z,996.65
2019-01-29T10:57:29.539Z,996.62
2019-01-29T10:58:29.520Z,996.57
2019-01-29T10:59:29.503Z,996.51
2019-01-29T11:00:29.479Z,996.52
2019-01-29T11:01:29.460Z,996.52
2019-01-29T11:02:29.440Z,996.51
2019-01-29T11:03:29.422Z,996.49
2019-01-29T11:04:29.402Z,996.5
2019-01-29T11:05:29.381Z,996.5
2019-01-29T11:06:29.363Z,996.51
2019-01-29T11:07:29.345Z,996.45
2019-01-29T11:08:29.324Z,996.44
2019-01-29T11:09:29.305Z,996.43
2019-01-29T11:10:29.285Z,996.39
2019-01-29T11:11:29.268Z,996.39
2019-01-29T11:12:29.267Z,996.42
2019-01-29T11:13:29.236Z,996.38
2019-01-29T11:14:29.208Z,996.39
2019-01-29T11:15:29.187Z,996.38
2019-01-29T11:16:29.167Z,996.32
2019-01-29T11:17:29.151Z,996.33
2019-01-29T11:18:29.129Z,996.27
2019-01-29T11:19:29.111Z,996.34
2019-01-29T11:20:29.088Z,996.3
2019-01-29T11:21:29.071Z,996.29
2019-01-29T11:22:29.048Z,996.29
2019-01-29T11:23:29.036Z,996.26
2019-01-29T11:24:29.016Z,996.29
2019-01-29T11:25:28.992Z,996.28
2019-01-29T11:26:29.006Z,996.3
2019-01-29T11:27:30.885Z,996.3
2019-01-29T11:28:28.950Z,996.28
2019-01-29T11:29:28.911Z,996.26
2019-01-29T11:30:28.892Z,996.28
2019-01-29T11:31:29.588Z,996.24
2019-01-29T11:32:28.851Z,996.18
2019-01-29T11:33:28.831Z,996.17
2019-01-29T11:34:28.808Z,996.21
2019-01-29T11:35:28.788Z,996.2
2019-01-29T11:36:28.772Z,996.17
2019-01-29T11:37:28.754Z,996.09
2019-01-29T11:38:28.758Z,996.15
2019-01-29T11:39:28.714Z,996.19
2019-01-29T11:40:28.691Z,996.13
2019-01-29T11:41:28.673Z,996.14
2019-01-29T11:42:28.654Z,996.12
2019-01-29T11:43:28.639Z,996.12
2019-01-29T11:44:28.665Z,996.09
2019-01-29T11:45:28.599Z,996.07
2019-01-29T11:46:28.580Z,996.06
2019-01-29T11:47:28.560Z,996.06
2019-01-29T11:48:28.541Z,996.09
2019-01-29T11:49:28.520Z,996.06
2019-01-29T11:50:28.504Z,996.01
2019-01-29T11:51:28.480Z,996.01
2019-01-29T11:52:28.468Z,996.02
2019-01-29T11:53:28.442Z,995.99
2019-01-29T11:54:28.424Z,995.96
2019-01-29T11:55:28.404Z,995.99
2019-01-29T11:56:28.386Z,995.94
2019-01-29T11:57:28.435Z,995.98
2019-01-29T11:58:28.348Z,995.97
2019-01-29T11:59:28.329Z,995.97
2019-01-29T12:00:28.310Z,995.95
2019-01-29T12:01:28.290Z,995.91
2019-01-29T12:02:28.718Z,995.92
2019-01-29T12:03:28.252Z,995.92
2019-01-29T12:04:28.235Z,995.9
2019-01-29T12:05:28.218Z,995.92
2019-01-29T12:06:28.196Z,995.92
2019-01-29T12:07:28.183Z,995.91
2019-01-29T12:08:28.161Z,995.87
2019-01-29T12:09:28.142Z,995.86
2019-01-29T12:10:28.122Z,995.8
2019-01-29T12:11:28.103Z,995.78
2019-01-29T12:12:28.085Z,995.84
2019-01-29T12:13:28.065Z,995.79
2019-01-29T12:14:28.046Z,995.76
2019-01-29T12:15:28.028Z,995.77
2019-01-29T12:16:28.009Z,995.73
2019-01-29T12:17:27.992Z,995.73
2019-01-29T12:18:27.970Z,995.72
2019-01-29T12:19:27.950Z,995.69
2019-01-29T12:20:27.933Z,995.68
2019-01-29T12:21:27.911Z,995.67
2019-01-29T12:22:27.894Z,995.69
2019-01-29T12:23:27.875Z,995.67
2019-01-29T12:24:27.854Z,995.66
2019-01-29T12:25:27.835Z,995.63
2019-01-29T12:26:27.814Z,995.64
2019-01-29T12:27:27.793Z,995.6
2019-01-29T12:28:27.772Z,995.62
2019-01-29T12:29:27.773Z,995.53
2019-01-29T12:30:27.735Z,995.6